createdAt,value
2019-02-04T00:01:06.743Z,82.37
2019-02-04T00:03:37.470Z,82.94
2019-02-04T00:06:08.103Z,82.24
2019-02-04T00:08:38.623Z,82.31
2019-02-04T00:11:09.266Z,82.57
2019-02-04T00:13:39.529Z,82.81
2019-02-04T00:16:10.119Z,82.98
2019-02-04T00:18:40.640Z,82.73
2019-02-04T00:21:11.166Z,82.91
2019-02-04T00:23:41.936Z,83.13
2019-02-04T00:26:12.543Z,83.51
2019-02-04T00:28:43.070Z,83.68
2019-02-04T00:31:13.709Z,83.15
2019-02-04T00:33:44.329Z,83.10
2019-02-04T00:36:14.877Z,82.97
2019-02-04T00:38:45.525Z,83.51
2019-02-04T00:41:16.135Z,82.99
2019-02-04T00:43:46.686Z,83.25
2019-02-04T00:46:17.717Z,83.26
2019-02-04T00:48:48.349Z,83.64
2019-02-04T00:51:18.872Z,83.51
2019-02-04T00:53:49.509Z,83.19
2019-02-04T00:56:20.037Z,83.16
2019-02-04T00:58:51.185Z,83.07
2019-02-04T01:01:21.870Z,83.16
2019-02-04T01:03:52.747Z,83.13
2019-02-04T01:06:23.803Z,83.26
2019-02-04T01:08:55.249Z,83.47
2019-02-04T01:11:25.513Z,83.06
2019-02-04T01:13:55.891Z,83.63
2019-02-04T01:16:26.522Z,83.42
2019-02-04T01:18:57.242Z,83.40
2019-02-04T01:21:27.771Z,83.69
2019-02-04T01:23:58.320Z,83.84
2019-02-04T01:26:28.953Z,84.14
2019-02-04T01:28:59.577Z,83.60
2019-02-04T01:31:30.238Z,83.60
2019-02-04T01:34:00.855Z,84.22
2019-02-04T01:36:31.469Z,83.89
2019-02-04T01:39:02.108Z,83.91
2019-02-04T01:41:33.278Z,84.14
2019-02-04T01:44:04.499Z,84.31
2019-02-04T01:46:35.017Z,84.31
2019-02-04T01:49:05.636Z,84.05
2019-02-04T01:51:36.395Z,84.24
2019-02-04T01:54:07.133Z,83.91
2019-02-04T01:56:37.741Z,84.27
2019-02-04T01:59:08.391Z,84.28
2019-02-04T02:01:38.929Z,84.37
2019-02-04T02:04:09.842Z,84.16
2019-02-04T02:06:40.496Z,84.23
2019-02-04T02:09:12.753Z,84.29
2019-02-04T02:11:43.499Z,84.50
2019-02-04T02:14:14.128Z,84.62
2019-02-04T02:16:44.781Z,84.51
2019-02-04T02:19:15.489Z,83.91
2019-02-04T02:21:46.118Z,84.44
2019-02-04T02:24:16.648Z,84.23
2019-02-04T02:26:47.276Z,84.57
2019-02-04T02:29:18.318Z,84.31
2019-02-04T02:31:48.664Z,84.27
2019-02-04T02:34:19.380Z,84.55
2019-02-04T02:36:49.900Z,83.85
2019-02-04T02:39:23.192Z,84.34
2019-02-04T02:41:54.240Z,84.73
2019-02-04T02:44:24.900Z,84.73
2019-02-04T02:46:55.516Z,84.65
2019-02-04T02:49:26.108Z,84.32
2019-02-04T02:51:56.425Z,84.55
2019-02-04T02:54:27.087Z,84.47
2019-02-04T02:56:57.287Z,84.46
2019-02-04T02:59:27.951Z,84.81
2019-02-04T03:01:58.200Z,84.95
2019-02-04T03:04:28.895Z,84.57
2019-02-04T03:06:59.261Z,84.39
2019-02-04T03:09:29.846Z,85.14
2019-02-04T03:12:00.389Z,85.29
2019-02-04T03:14:31.011Z,85.25
2019-02-04T03:17:01.643Z,84.94
2019-02-04T03:19:32.269Z,84.93
2019-02-04T03:22:03.111Z,85.04
2019-02-04T03:24:33.759Z,84.82
2019-02-04T03:27:04.384Z,84.83
2019-02-04T03:29:34.919Z,85.14
2019-02-04T03:32:05.540Z,84.95
2019-02-04T03:34:36.303Z,85.35
2019-02-04T03:37:06.904Z,85.19
2019-02-04T03:39:37.534Z,85.06
2019-02-04T03:42:07.726Z,84.91
2019-02-04T03:44:38.289Z,85.00
2019-02-04T03:47:09.444Z,85.01
2019-02-04T03:49:40.176Z,85.45
2019-02-04T03:52:10.933Z,84.90
2019-02-04T03:54:41.690Z,85.30
2019-02-04T03:57:12.026Z,85.33
2019-02-04T03:59:42.928Z,85.30
2019-02-04T04:02:13.644Z,85.56
2019-02-04T04:04:44.290Z,85.73
2019-02-04T04:07:15.006Z,85.48
2019-02-04T04:09:45.872Z,85.45
2019-02-04T04:12:16.636Z,85.47
2019-02-04T04:14:47.414Z,85.02
2019-02-04T04:17:18.035Z,84.80
2019-02-04T04:19:48.573Z,85.06
2019-02-04T04:22:19.222Z,85.16
2019-02-04T04:24:49.859Z,85.39
2019-02-04T04:27:20.482Z,85.79
2019-02-04T04:29:51.113Z,85.32
2019-02-04T04:32:22.145Z,85.68
2019-02-04T04:34:52.758Z,85.99
2019-02-04T04:37:23.403Z,85.70
2019-02-04T04:39:54.247Z,85.70
2019-02-04T04:42:24.851Z,85.31
2019-02-04T04:44:55.395Z,85.10
2019-02-04T04:47:26.053Z,85.10
2019-02-04T04:49:56.781Z,85.64
2019-02-04T04:52:27.817Z,85.59
2019-02-04T04:54:58.531Z,86.06
2019-02-04T04:57:29.066Z,85.92
2019-02-04T04:59:59.379Z,85.88
2019-02-04T05:02:30.024Z,85.78
2019-02-04T05:05:01.175Z,86.17
2019-02-04T05:07:31.814Z,86.18
2019-02-04T05:10:02.110Z,85.76
2019-02-04T05:12:32.310Z,86.08
2019-02-04T05:15:03.230Z,85.76
2019-02-04T05:17:34.196Z,85.87
2019-02-04T05:20:07.819Z,85.76
2019-02-04T05:22:38.372Z,85.55
2019-02-04T05:25:08.919Z,85.30
2019-02-04T05:27:39.545Z,85.62
2019-02-04T05:30:13.425Z,85.80
2019-02-04T05:32:44.057Z,85.90
2019-02-04T05:35:14.694Z,85.87
2019-02-04T05:37:45.333Z,85.97
2019-02-04T05:40:17.395Z,85.80
2019-02-04T05:42:49.115Z,86.03
2019-02-04T05:45:20.687Z,86.05
2019-02-04T05:47:51.328Z,86.09
2019-02-04T05:50:21.972Z,86.01
2019-02-04T05:52:52.831Z,85.84
2019-02-04T05:55:24.006Z,85.93
2019-02-04T05:57:54.716Z,85.86
2019-02-04T06:00:31.757Z,85.60
2019-02-04T06:03:02.385Z,85.58
2019-02-04T06:05:33.095Z,85.56
2019-02-04T06:08:03.969Z,85.79
2019-02-04T06:10:35.327Z,85.89
2019-02-04T06:13:05.886Z,85.84
2019-02-04T06:15:36.517Z,85.53
2019-02-04T06:18:07.218Z,85.79
2019-02-04T06:20:38.434Z,85.89
2019-02-04T06:23:08.800Z,85.80
2019-02-04T06:25:39.422Z,85.85
2019-02-04T06:28:09.935Z,85.41
2019-02-04T06:30:40.572Z,85.77
2019-02-04T06:33:11.630Z,85.22
2019-02-04T06:35:42.252Z,85.44
2019-02-04T06:38:12.872Z,85.84
2019-02-04T06:40:43.624Z,85.85
2019-02-04T06:43:14.252Z,85.77
2019-02-04T06:45:46.056Z,85.50
2019-02-04T06:48:18.623Z,85.47
2019-02-04T06:50:51.041Z,85.38
2019-02-04T06:53:21.898Z,85.03
2019-02-04T06:55:52.310Z,84.98
2019-02-04T06:58:22.960Z,85.15
2019-02-04T07:00:53.690Z,84.88
2019-02-04T07:03:24.412Z,85.02
2019-02-04T07:05:54.692Z,84.88
2019-02-04T07:08:25.366Z,84.66
2019-02-04T07:10:55.610Z,84.76
2019-02-04T07:13:26.604Z,84.83
2019-02-04T07:15:57.396Z,84.81
2019-02-04T07:18:28.015Z,84.51
2019-02-04T07:20:58.661Z,84.59
2019-02-04T07:23:29.367Z,84.68
2019-02-04T07:26:00.181Z,84.42
2019-02-04T07:28:30.737Z,84.52
2019-02-04T07:31:01.469Z,84.54
2019-02-04T07:33:31.851Z,84.43
2019-02-04T07:36:03.540Z,84.13
2019-02-04T07:38:34.208Z,84.47
2019-02-04T07:41:04.994Z,84.35
2019-02-04T07:43:35.864Z,84.15
2019-02-04T07:46:06.587Z,84.43
2019-02-04T07:48:37.233Z,84.28
2019-02-04T07:51:10.732Z,83.67
2019-02-04T07:53:41.388Z,83.98
2019-02-04T07:56:12.086Z,84.29
2019-02-04T07:58:42.828Z,84.29
2019-02-04T08:01:13.470Z,84.42
2019-02-04T08:03:44.199Z,84.18
2019-02-04T08:06:14.948Z,83.99
2019-02-04T08:08:45.558Z,83.50
2019-02-04T08:11:16.304Z,83.80
2019-02-04T08:13:46.938Z,83.55
2019-02-04T08:16:17.262Z,83.23
2019-02-04T08:18:48.286Z,83.54
2019-02-04T08:21:19.023Z,84.04
2019-02-04T08:23:49.759Z,83.80
2019-02-04T08:26:20.395Z,83.81
2019-02-04T08:28:51.125Z,83.73
2019-02-04T08:31:21.857Z,83.45
2019-02-04T08:33:52.386Z,82.98
2019-02-04T08:36:23.047Z,83.68
2019-02-04T08:38:53.756Z,82.93
2019-02-04T08:41:27.200Z,83.07
2019-02-04T08:43:57.817Z,83.41
2019-02-04T08:46:28.416Z,82.70
2019-02-04T08:49:00.873Z,82.47
2019-02-04T08:51:35.438Z,82.92
2019-02-04T08:54:09.414Z,82.91
2019-02-04T08:56:43.099Z,82.59
2019-02-04T08:59:13.897Z,81.67
2019-02-04T09:01:44.488Z,82.22
2019-02-04T09:04:15.465Z,82.06
2019-02-04T09:06:46.167Z,82.08
2019-02-04T09:09:18.236Z,81.33
2019-02-04T09:11:52.962Z,80.68
2019-02-04T09:14:23.611Z,81.15
2019-02-04T09:16:54.018Z,81.49
2019-02-04T09:19:24.370Z,81.37
2019-02-04T09:21:55.092Z,81.03
2019-02-04T09:24:26.156Z,80.96
2019-02-04T09:26:58.497Z,81.58
2019-02-04T09:29:29.155Z,81.59
2019-02-04T09:32:00.255Z,81.52
2019-02-04T09:34:30.798Z,81.16
2019-02-04T09:37:01.930Z,81.38
2019-02-04T09:39:32.582Z,80.03
2019-02-04T09:42:03.192Z,79.97
2019-02-04T09:44:33.960Z,79.53
2019-02-04T09:47:09.501Z,80.27
2019-02-04T09:49:40.202Z,80.20
2019-02-04T09:52:10.848Z,79.62
2019-02-04T09:54:41.185Z,79.28
2019-02-04T09:57:11.804Z,79.19
2019-02-04T09:59:42.477Z,79.17
2019-02-04T10:02:12.746Z,78.56
2019-02-04T10:04:46.797Z,77.93
2019-02-04T10:07:18.065Z,78.64
2019-02-04T10:09:48.774Z,78.11
2019-02-04T10:12:21.230Z,78.00
2019-02-04T10:14:52.461Z,78.85
2019-02-04T10:17:23.106Z,77.82
2019-02-04T10:19:53.680Z,78.06
2019-02-04T10:22:24.393Z,77.23
2019-02-04T10:24:55.140Z,77.23
2019-02-04T10:27:31.185Z,76.95
2019-02-04T10:29:57.775Z,76.68
2019-02-04T10:32:28.622Z,76.60
2019-02-04T10:34:59.346Z,76.26
2019-02-04T10:37:29.945Z,76.68
2019-02-04T10:40:00.582Z,75.81
2019-02-04T10:42:31.179Z,75.74
2019-02-04T10:45:01.806Z,75.23
2019-02-04T10:47:33.969Z,75.08
2019-02-04T10:50:07.745Z,75.20
2019-02-04T10:52:38.415Z,75.23
2019-02-04T10:55:09.607Z,75.11
2019-02-04T10:57:40.915Z,74.51
2019-02-04T11:00:14.711Z,74.51
2019-02-04T11:02:45.493Z,73.46
2019-02-04T11:05:19.172Z,73.90
2019-02-04T11:07:49.985Z,73.51
2019-02-04T11:10:23.034Z,74.51
2019-02-04T11:12:56.708Z,75.05
2019-02-04T11:15:28.774Z,73.44
2019-02-04T11:18:00.022Z,73.08
2019-02-04T11:20:32.100Z,72.43
2019-02-04T11:23:02.799Z,72.61
2019-02-04T11:25:33.539Z,72.12
2019-02-04T11:28:04.827Z,71.53
2019-02-04T11:30:49.022Z,71.50
2019-02-04T11:33:19.443Z,70.47
2019-02-04T11:35:50.200Z,71.03
2019-02-04T11:38:25.141Z,70.34
2019-02-04T11:41:00.010Z,70.93
2019-02-04T11:43:32.671Z,70.60
2019-02-04T11:46:03.412Z,70.78
2019-02-04T11:48:34.117Z,70.70
2019-02-04T11:51:09.925Z,70.71
2019-02-04T11:53:37.135Z,70.40
2019-02-04T11:56:07.570Z,70.80
2019-02-04T11:58:38.354Z,69.90
2019-02-04T12:01:10.295Z,67.95
2019-02-04T12:03:42.837Z,68.27
2019-02-04T12:06:13.430Z,68.71
2019-02-04T12:08:43.823Z,69.40
2019-02-04T12:11:14.489Z,69.01
2019-02-04T12:13:45.113Z,67.37
2019-02-04T12:16:15.784Z,67.17
2019-02-04T12:18:46.587Z,66.21
2019-02-04T12:21:21.605Z,68.09
2019-02-04T12:23:49.381Z,67.46
2019-02-04T12:26:20.018Z,66.77
2019-02-04T12:28:51.620Z,66.87
2019-02-04T12:31:22.371Z,66.98
2019-02-04T12:33:53.148Z,67.69
2019-02-04T12:36:23.776Z,67.29
2019-02-04T12:38:54.405Z,67.49
2019-02-04T12:41:25.079Z,68.18
2019-02-04T12:43:57.789Z,68.18
2019-02-04T12:46:28.454Z,67.38
2019-02-04T12:48:58.768Z,67.23
2019-02-04T12:51:33.759Z,67.01
2019-02-04T12:54:01.701Z,67.58
2019-02-04T12:56:32.230Z,68.47
2019-02-04T12:59:02.820Z,68.12
2019-02-04T13:01:33.470Z,68.02
2019-02-04T13:04:04.186Z,66.88
2019-02-04T13:06:34.855Z,67.50
2019-02-04T13:09:08.328Z,67.94
2019-02-04T13:11:38.962Z,68.42
2019-02-04T13:14:09.594Z,68.93
2019-02-04T13:16:40.256Z,67.02
2019-02-04T13:19:10.864Z,67.59
2019-02-04T13:21:45.491Z,67.48
2019-02-04T13:24:13.876Z,68.03
2019-02-04T13:26:44.489Z,67.64
2019-02-04T13:29:15.489Z,66.83
2019-02-04T13:31:51.009Z,65.61
2019-02-04T13:34:18.444Z,63.58
2019-02-04T13:36:48.828Z,63.17
2019-02-04T13:39:19.638Z,63.36
2019-02-04T13:41:50.247Z,62.95
2019-02-04T13:44:20.981Z,64.77
2019-02-04T13:46:51.600Z,64.06
2019-02-04T13:49:22.659Z,63.89
2019-02-04T13:51:57.482Z,64.49
2019-02-04T13:54:25.265Z,63.83
2019-02-04T13:56:55.865Z,64.55
2019-02-04T13:59:26.487Z,64.94
2019-02-04T14:01:57.565Z,64.80
2019-02-04T14:04:28.191Z,63.30
2019-02-04T14:06:59.252Z,63.88
2019-02-04T14:09:30.003Z,63.45
2019-02-04T14:12:02.206Z,63.45
2019-02-04T14:14:33.397Z,64.28
2019-02-04T14:17:04.047Z,64.35
2019-02-04T14:19:36.360Z,64.08
2019-02-04T14:22:09.316Z,63.63
2019-02-04T14:24:39.259Z,65.57
2019-02-04T14:27:10.234Z,65.70
2019-02-04T14:29:40.827Z,65.84
2019-02-04T14:32:11.388Z,65.79
2019-02-04T14:34:42.032Z,66.58
2019-02-04T14:37:12.777Z,66.19
2019-02-04T14:39:43.911Z,66.48
2019-02-04T14:42:17.173Z,67.07
2019-02-04T14:44:49.034Z,67.16
2019-02-04T14:47:23.065Z,66.81
2019-02-04T14:50:19.020Z,66.42
2019-02-04T14:53:11.105Z,65.96
2019-02-04T14:55:51.043Z,66.98
2019-02-04T14:58:30.977Z,67.62
2019-02-04T15:01:34.919Z,67.81
2019-02-04T15:04:14.601Z,67.74
2019-02-04T15:06:51.634Z,68.32
2019-02-04T15:09:33.439Z,68.40
2019-02-04T15:12:16.164Z,68.82
2019-02-04T15:14:49.754Z,68.36
2019-02-04T15:17:23.355Z,69.45
2019-02-04T15:20:22.983Z,69.40
2019-02-04T15:23:10.721Z,68.41
2019-02-04T15:25:53.738Z,68.72
2019-02-04T15:28:37.312Z,69.41
2019-02-04T15:31:42.465Z,70.39
2019-02-04T15:34:45.107Z,70.29
2019-02-04T15:37:30.374Z,71.04
2019-02-04T15:40:07.027Z,70.92
2019-02-04T15:43:00.646Z,71.27
2019-02-04T15:45:46.711Z,72.05
2019-02-04T15:48:19.627Z,72.68
2019-02-04T15:50:56.711Z,73.32
2019-02-04T15:53:27.395Z,73.34
2019-02-04T15:55:59.480Z,73.57
2019-02-04T15:58:30.421Z,73.86
2019-02-04T16:01:04.464Z,74.14
2019-02-04T16:03:33.523Z,74.36
2019-02-04T16:06:04.155Z,74.49
2019-02-04T16:08:35.834Z,74.78
2019-02-04T16:11:06.969Z,75.06
2019-02-04T16:13:39.810Z,75.51
2019-02-04T16:16:10.354Z,75.94
2019-02-04T16:18:40.866Z,76.09
2019-02-04T16:21:11.623Z,76.34
2019-02-04T16:23:42.265Z,76.62
2019-02-04T16:26:15.195Z,76.21
2019-02-04T16:28:45.377Z,76.93
2019-02-04T16:31:15.762Z,77.06
2019-02-04T16:33:46.434Z,76.68
2019-02-04T16:36:23.467Z,76.73
2019-02-04T16:38:50.571Z,76.54
2019-02-04T16:41:20.888Z,77.47
2019-02-04T16:43:53.179Z,77.20
2019-02-04T16:46:25.442Z,77.58
2019-02-04T16:48:56.139Z,77.74
2019-02-04T16:51:26.790Z,77.84
2019-02-04T16:53:59.275Z,77.94
2019-02-04T16:56:32.050Z,77.95
2019-02-04T16:59:02.495Z,77.66
2019-02-04T17:01:32.871Z,77.72
2019-02-04T17:04:03.739Z,77.76
2019-02-04T17:06:34.718Z,77.81
2019-02-04T17:09:07.677Z,78.15
2019-02-04T17:11:38.923Z,77.95
2019-02-04T17:14:12.493Z,77.95
2019-02-04T17:16:43.325Z,77.82
2019-02-04T17:19:13.992Z,78.02
2019-02-04T17:21:44.698Z,77.92
2019-02-04T17:24:15.355Z,77.87
2019-02-04T17:26:46.345Z,77.96
2019-02-04T17:29:17.028Z,77.74
2019-02-04T17:31:47.329Z,78.04
2019-02-04T17:34:18.298Z,77.66
2019-02-04T17:36:49.218Z,77.96
2019-02-04T17:39:23.063Z,77.79
2019-02-04T17:41:55.704Z,78.06
2019-02-04T17:44:26.423Z,77.77
2019-02-04T17:46:57.112Z,77.98
2019-02-04T17:49:27.719Z,78.07
2019-02-04T17:51:59.500Z,77.98
2019-02-04T17:54:30.535Z,78.37
2019-02-04T17:57:01.524Z,77.59
2019-02-04T17:59:32.308Z,77.22
2019-02-04T18:02:04.664Z,77.32
2019-02-04T18:04:35.424Z,77.12
2019-02-04T18:07:06.372Z,77.13
2019-02-04T18:09:37.154Z,77.20
2019-02-04T18:12:07.917Z,77.00
2019-02-04T18:14:38.667Z,77.52
2019-02-04T18:17:09.361Z,77.31
2019-02-04T18:19:40.416Z,77.00
2019-02-04T18:22:11.021Z,77.37
2019-02-04T18:24:41.734Z,77.24
2019-02-04T18:27:13.029Z,76.82
2019-02-04T18:29:43.746Z,76.92
2019-02-04T18:32:16.613Z,76.87
2019-02-04T18:34:47.365Z,76.79
2019-02-04T18:37:18.450Z,76.56
2019-02-04T18:39:49.052Z,76.37
2019-02-04T18:42:19.795Z,76.22
2019-02-04T18:44:50.950Z,76.28
2019-02-04T18:47:21.591Z,76.25
2019-02-04T18:49:51.914Z,75.83
2019-02-04T18:52:22.641Z,75.73
2019-02-04T18:54:53.545Z,75.76
2019-02-04T18:57:24.197Z,75.58
2019-02-04T18:59:55.073Z,75.77
2019-02-04T19:02:25.929Z,76.00
2019-02-04T19:04:56.880Z,75.81
2019-02-04T19:07:29.100Z,75.69
2019-02-04T19:10:00.198Z,75.73
2019-02-04T19:12:33.732Z,76.06
2019-02-04T19:15:06.109Z,75.85
2019-02-04T19:17:39.891Z,75.94
2019-02-04T19:20:16.379Z,75.85
2019-02-04T19:22:47.132Z,75.69
2019-02-04T19:25:19.923Z,75.73
2019-02-04T19:27:51.729Z,75.60
2019-02-04T19:30:28.246Z,75.48
2019-02-04T19:33:00.969Z,75.36
2019-02-04T19:35:31.720Z,75.47
2019-02-04T19:38:02.579Z,75.29
2019-02-04T19:40:37.717Z,75.80
2019-02-04T19:43:08.439Z,75.79
2019-02-04T19:45:40.689Z,75.62
2019-02-04T19:48:11.589Z,75.61
2019-02-04T19:50:44.078Z,75.39
2019-02-04T19:53:15.041Z,75.51
2019-02-04T19:55:45.910Z,75.78
2019-02-04T19:58:17.104Z,75.35
2019-02-04T20:00:47.444Z,75.34
2019-02-04T20:03:18.125Z,75.56
2019-02-04T20:05:51.135Z,75.41
2019-02-04T20:08:21.438Z,75.40
2019-02-04T20:10:52.415Z,75.29
2019-02-04T20:13:23.200Z,75.34
2019-02-04T20:15:56.879Z,75.45
2019-02-04T20:18:27.725Z,75.48
2019-02-04T20:20:58.450Z,74.97
2019-02-04T20:23:34.139Z,75.22
2019-02-04T20:26:06.069Z,75.42
2019-02-04T20:28:37.300Z,75.33
2019-02-04T20:31:09.512Z,75.49
2019-02-04T20:33:40.612Z,75.36
2019-02-04T20:36:16.169Z,75.28
2019-02-04T20:38:48.929Z,75.23
2019-02-04T20:41:21.014Z,75.33
2019-02-04T20:43:51.927Z,75.05
2019-02-04T20:46:24.872Z,75.50
2019-02-04T20:49:03.981Z,75.50
2019-02-04T20:51:42.339Z,75.39
2019-02-04T20:54:19.715Z,75.01
2019-02-04T20:56:50.204Z,75.36
2019-02-04T20:59:21.182Z,75.17
2019-02-04T21:01:52.138Z,75.45
2019-02-04T21:04:23.089Z,75.50
2019-02-04T21:06:56.129Z,75.66
2019-02-04T21:09:28.886Z,75.47
2019-02-04T21:11:59.783Z,75.44
2019-02-04T21:14:30.951Z,75.54
2019-02-04T21:17:04.606Z,75.77
2019-02-04T21:19:35.514Z,75.67
2019-02-04T21:22:08.016Z,75.80
2019-02-04T21:24:38.996Z,75.18
2019-02-04T21:27:09.709Z,75.70
2019-02-04T21:29:40.630Z,75.08
2019-02-04T21:32:13.122Z,75.64
2019-02-04T21:34:50.279Z,75.41
2019-02-04T21:37:20.989Z,75.68
2019-02-04T21:39:51.722Z,75.15
2019-02-04T21:42:23.743Z,75.23
2019-02-04T21:44:54.516Z,75.56
2019-02-04T21:47:25.728Z,75.28
2019-02-04T21:49:56.546Z,75.23
2019-02-04T21:52:28.786Z,74.60
2019-02-04T21:55:08.043Z,75.06
2019-02-04T21:57:31.466Z,74.91
2019-02-04T22:00:04.984Z,74.81
2019-02-04T22:02:35.742Z,74.62
2019-02-04T22:05:17.865Z,74.82
2019-02-04T22:07:51.518Z,74.76
2019-02-04T22:10:27.380Z,75.06
2019-02-04T22:12:58.557Z,74.72
2019-02-04T22:15:29.377Z,74.45
2019-02-04T22:18:00.091Z,74.51
2019-02-04T22:20:32.523Z,74.63
2019-02-04T22:23:04.930Z,73.79
2019-02-04T22:25:35.735Z,74.12
2019-02-04T22:28:06.555Z,74.36
2019-02-04T22:30:37.338Z,74.17
2019-02-04T22:33:08.099Z,74.49
2019-02-04T22:35:38.946Z,74.39
2019-02-04T22:38:09.773Z,73.99
2019-02-04T22:40:40.277Z,73.96
2019-02-04T22:43:10.905Z,74.07
2019-02-04T22:45:41.680Z,73.83
2019-02-04T22:48:12.407Z,73.64
2019-02-04T22:50:43.467Z,73.64
2019-02-04T22:53:16.448Z,74.04
2019-02-04T22:55:47.247Z,73.70
2019-02-04T22:58:17.950Z,73.96
2019-02-04T23:01:06.917Z,73.95
2019-02-04T23:03:38.144Z,72.98
2019-02-04T23:06:08.751Z,73.08
2019-02-04T23:08:39.375Z,73.06
2019-02-04T23:48:30.687Z,74.70
2019-02-04T23:51:02.480Z,74.75
2019-02-04T23:53:33.075Z,74.28
2019-02-04T23:56:04.115Z,74.19
2019-02-04T23:58:34.681Z,74.48
